Time;durP1;ratioP1;P1;durP2;ratioP2;P2;SDS_P1;SDS_P2;PMS_P1;PMS_P2;Temp;Humidity;BMP_temperature;BMP_pressure;BME280_temperature;BME280_humidity;BME280_pressure;Samples;Min_cycle;Max_cycle;Signal;HPM_P1;HPM_P2
2021/05/15 00:02:10;;;;;;;23.38;17.48;;;11.10;71.90;;;;;;5096543;28;20044;-76
2021/05/15 00:04:36;;;;;;;26.05;18.25;;;11.10;72.00;;;;;;5097115;28;20499;-76
2021/05/15 00:07:01;;;;;;;22.98;16.35;;;11.10;72.10;;;;;;5098164;28;20050;-75
2021/05/15 00:09:27;;;;;;;25.52;17.55;;;11.10;72.10;;;;;;5096372;28;20052;-76
2021/05/15 00:11:53;;;;;;;21.35;16.63;;;11.10;72.20;;;;;;5097827;28;20051;-77
2021/05/15 00:14:18;;;;;;;24.13;16.98;;;11.10;72.20;;;;;;5096154;28;20036;-76
2021/05/15 00:16:44;;;;;;;23.45;17.30;;;11.10;72.30;;;;;;5079063;28;20484;-76
2021/05/15 00:19:10;;;;;;;29.10;18.35;;;11.00;72.30;;;;;;5096232;28;20048;-73
2021/05/15 00:21:36;;;;;;;26.13;18.27;;;11.00;73.10;;;;;;5096374;28;20131;-77
2021/05/15 00:24:02;;;;;;;23.50;17.33;;;11.00;72.40;;;;;;5096688;28;20067;-77
2021/05/15 00:26:28;;;;;;;27.80;18.55;;;10.90;72.30;;;;;;5079355;28;20040;-75
2021/05/15 00:28:54;;;;;;;24.83;18.45;;;11.00;72.40;;;;;;5096511;28;20062;-73
2021/05/15 00:31:20;;;;;;;22.00;16.73;;;10.90;72.40;;;;;;5095878;28;20052;-76
2021/05/15 00:33:46;;;;;;;23.35;17.73;;;10.90;72.40;;;;;;5097625;28;20044;-76
2021/05/15 00:36:11;;;;;;;29.17;17.85;;;10.90;72.50;;;;;;5078825;28;20108;-78
2021/05/15 00:38:37;;;;;;;24.30;16.88;;;10.90;73.30;;;;;;5096015;28;20097;-76
2021/05/15 00:41:03;;;;;;;25.52;16.58;;;10.90;72.60;;;;;;5096126;28;20040;-74
2021/05/15 00:43:29;;;;;;;24.25;17.45;;;10.90;72.60;;;;;;5095714;28;20059;-76
2021/05/15 00:45:58;;;;;;;26.73;19.00;;;10.90;72.70;;;;;;5097549;28;20040;-75
2021/05/15 00:48:24;;;;;;;23.88;17.85;;;10.90;72.60;;;;;;5095814;28;20125;-76
2021/05/15 00:50:50;;;;;;;23.75;16.65;;;10.90;72.70;;;;;;5078996;28;20075;-75
2021/05/15 00:53:17;;;;;;;23.50;17.13;;;10.90;72.60;;;;;;5078942;28;20043;-76
2021/05/15 00:55:43;;;;;;;23.88;16.23;;;10.80;72.60;;;;;;5095967;28;20055;-75
2021/05/15 00:58:09;;;;;;;26.02;18.10;;;10.80;72.50;;;;;;5097470;28;20040;-76
2021/05/15 01:00:35;;;;;;;23.95;17.92;;;10.80;72.60;;;;;;5096914;28;20480;-73
2021/05/15 01:03:00;;;;;;;26.00;18.02;;;10.80;72.60;;;;;;5095991;28;20464;-76
2021/05/15 01:05:26;;;;;;;27.70;18.42;;;10.80;72.60;;;;;;5095324;28;20051;-78
2021/05/15 01:07:52;;;;;;;27.13;17.80;;;10.70;72.70;;;;;;5097037;28;20040;-76
2021/05/15 01:10:18;;;;;;;26.00;17.40;;;10.70;72.80;;;;;;5078419;28;20062;-77
2021/05/15 01:12:53;;;;;;;26.95;17.60;;;10.70;72.80;;;;;;5095685;28;20042;-75
2021/05/15 01:15:20;;;;;;;27.15;19.63;;;10.70;73.00;;;;;;5096733;28;20052;-75
2021/05/15 01:17:50;;;;;;;27.48;18.67;;;10.70;73.00;;;;;;5095515;28;20480;-75
2021/05/15 01:20:16;;;;;;;29.33;19.90;;;10.70;73.10;;;;;;5078339;28;20075;-77
2021/05/15 01:22:42;;;;;;;26.88;18.80;;;10.60;72.90;;;;;;5078030;28;20044;-78
2021/05/15 01:25:09;;;;;;;28.88;19.77;;;10.60;73.00;;;;;;5096200;28;20067;-74
2021/05/15 01:27:35;;;;;;;25.10;17.50;;;10.60;73.00;;;;;;5097980;28;20048;-74
2021/05/15 01:30:01;;;;;;;27.17;18.92;;;10.60;73.00;;;;;;5080164;28;20353;-75
2021/05/15 01:32:27;;;;;;;26.88;17.75;;;10.50;73.00;;;;;;5097363;28;20039;-75
2021/05/15 01:34:55;;;;;;;24.33;18.38;;;10.50;73.00;;;;;;5092337;28;20354;-78
2021/05/15 01:37:20;;;;;;;26.05;17.85;;;10.50;73.00;;;;;;5091104;28;20063;-76
2021/05/15 01:39:46;;;;;;;25.58;18.17;;;10.50;73.00;;;;;;5091540;28;20059;-75
2021/05/15 01:42:12;;;;;;;26.02;18.30;;;10.50;73.00;;;;;;5092176;28;20476;-76
2021/05/15 01:44:37;;;;;;;24.15;16.80;;;10.40;73.00;;;;;;5090824;28;20095;-75
2021/05/15 01:47:06;;;;;;;26.45;18.02;;;10.40;73.00;;;;;;5092548;28;20055;-76
2021/05/15 01:49:32;;;;;;;26.58;16.33;;;10.50;73.20;;;;;;5090717;28;20040;-75
2021/05/15 01:51:58;;;;;;;26.27;17.67;;;10.40;73.20;;;;;;5090973;28;20385;-74
2021/05/15 01:54:23;;;;;;;25.38;16.98;;;10.40;73.20;;;;;;5092072;28;20500;-75
2021/05/15 01:56:49;;;;;;;25.58;16.80;;;10.40;73.20;;;;;;5089766;28;20044;-75
2021/05/15 01:59:17;;;;;;;28.42;17.58;;;10.40;73.30;;;;;;5074059;28;20131;-76
2021/05/15 02:01:43;;;;;;;25.25;16.83;;;10.30;73.20;;;;;;5091889;28;20044;-75
2021/05/15 02:04:09;;;;;;;28.33;17.13;;;10.30;73.20;;;;;;5090928;28;20044;-77
2021/05/15 02:06:35;;;;;;;24.00;17.20;;;10.30;73.20;;;;;;5091830;28;20124;-76
2021/05/15 02:09:00;;;;;;;27.92;16.52;;;10.30;73.20;;;;;;5090706;28;20408;-77
2021/05/15 02:11:26;;;;;;;22.13;16.52;;;10.30;73.30;;;;;;5091331;28;20397;-75
2021/05/15 02:13:52;;;;;;;24.00;16.42;;;10.30;73.40;;;;;;5090750;28;20054;-76
2021/05/15 02:16:18;;;;;;;30.65;17.98;;;10.30;73.50;;;;;;5091961;28;20067;-75
2021/05/15 02:18:45;;;;;;;26.92;17.35;;;10.30;73.50;;;;;;5073510;28;20040;-75
2021/05/15 02:21:11;;;;;;;24.67;16.73;;;10.30;73.70;;;;;;5090553;28;20036;-77
2021/05/15 02:23:36;;;;;;;24.00;16.75;;;10.40;73.70;;;;;;5089905;28;20123;-75
2021/05/15 02:26:03;;;;;;;25.05;16.80;;;10.40;73.80;;;;;;5090551;28;20066;-75
2021/05/15 02:28:31;;;;;;;24.85;17.08;;;10.40;73.80;;;;;;5090077;28;20089;-76
2021/05/15 02:30:57;;;;;;;24.23;16.13;;;10.40;73.80;;;;;;5091715;28;20044;-76
2021/05/15 02:33:22;;;;;;;23.75;16.50;;;10.40;73.80;;;;;;5091630;28;20051;-76
2021/05/15 02:35:48;;;;;;;27.27;16.77;;;10.40;73.90;;;;;;5091117;28;20058;-76
2021/05/15 02:38:17;;;;;;;28.98;17.27;;;10.40;73.90;;;;;;5091093;28;20051;-76
2021/05/15 02:40:44;;;;;;;27.33;17.00;;;10.40;73.90;;;;;;5073091;28;20044;-75
2021/05/15 02:43:10;;;;;;;21.70;15.35;;;10.40;73.90;;;;;;5073754;28;20048;-75
2021/05/15 02:45:36;;;;;;;24.08;15.95;;;10.40;73.90;;;;;;5091171;28;20350;-75
2021/05/15 02:48:02;;;;;;;23.50;16.15;;;10.40;73.90;;;;;;5090269;28;20472;-74
2021/05/15 02:50:27;;;;;;;25.48;16.13;;;10.40;74.00;;;;;;5073027;28;20116;-84
2021/05/15 02:52:53;;;;;;;22.92;15.50;;;10.40;74.00;;;;;;5091162;28;20043;-75
2021/05/15 02:55:21;;;;;;;26.95;16.13;;;10.40;73.90;;;;;;5090258;28;20044;-78
2021/05/15 02:57:47;;;;;;;23.27;15.60;;;10.40;74.00;;;;;;5072703;28;20044;-76
2021/05/15 03:00:15;;;;;;;27.20;16.70;;;10.50;74.00;;;;;;5073541;28;20097;-76
2021/05/15 03:02:41;;;;;;;23.38;14.63;;;10.50;74.10;;;;;;5089717;28;20058;-76
2021/05/15 03:05:08;;;;;;;23.73;15.40;;;10.50;74.80;;;;;;5090998;28;20122;-78
2021/05/15 03:07:34;;;;;;;26.00;16.60;;;10.50;74.20;;;;;;5089744;28;20066;-77
2021/05/15 03:09:59;;;;;;;23.23;14.88;;;10.50;74.20;;;;;;5090112;28;20473;-76
2021/05/15 03:12:25;;;;;;;23.40;15.77;;;10.50;74.20;;;;;;5090120;28;20093;-74
2021/05/15 03:14:51;;;;;;;22.67;15.70;;;10.50;74.20;;;;;;5089268;28;20113;-76
2021/05/15 03:17:17;;;;;;;21.73;13.98;;;10.50;74.20;;;;;;5073343;28;20091;-75
2021/05/15 03:19:42;;;;;;;21.02;14.45;;;10.50;74.30;;;;;;5089611;28;20083;-75
2021/05/15 03:22:08;;;;;;;26.65;15.75;;;10.40;74.30;;;;;;5056720;28;20060;-76
2021/05/15 03:24:35;;;;;;;23.23;15.25;;;10.50;74.30;;;;;;5089325;28;20060;-77
2021/05/15 03:27:01;;;;;;;21.25;15.07;;;10.50;74.30;;;;;;5089993;28;20503;-77
2021/05/15 03:29:27;;;;;;;25.35;14.73;;;10.50;74.30;;;;;;5073353;28;20076;-75
2021/05/15 03:31:53;;;;;;;24.75;14.82;;;10.50;74.20;;;;;;5089219;28;20052;-76
2021/05/15 03:34:19;;;;;;;26.48;15.90;;;10.50;74.20;;;;;;5089621;28;20455;-75
2021/05/15 03:36:45;;;;;;;19.88;13.93;;;10.50;74.20;;;;;;5089125;28;20238;-76
2021/05/15 03:39:17;;;;;;;24.92;14.30;;;10.50;74.10;;;;;;5091297;28;20043;-76
2021/05/15 03:41:44;;;;;;;25.70;15.02;;;10.50;74.10;;;;;;5073694;28;20032;-77
2021/05/15 03:44:10;;;;;;;24.52;15.60;;;10.50;74.10;;;;;;5072798;28;20044;-77
2021/05/15 03:46:36;;;;;;;22.65;15.07;;;10.50;74.00;;;;;;5072891;28;20094;-83
2021/05/15 03:49:02;;;;;;;25.95;14.45;;;10.60;74.10;;;;;;5089768;28;20043;-76
2021/05/15 03:51:27;;;;;;;25.98;14.98;;;10.50;74.00;;;;;;5093513;28;20047;-76
2021/05/15 03:53:53;;;;;;;22.52;14.70;;;10.50;73.90;;;;;;5094133;28;20088;-75
2021/05/15 03:56:19;;;;;;;21.77;14.23;;;10.50;73.80;;;;;;5093380;28;20039;-76
2021/05/15 03:58:45;;;;;;;22.00;13.77;;;10.60;74.70;;;;;;5094222;28;20056;-75
2021/05/15 04:01:10;;;;;;;19.77;13.77;;;10.60;73.90;;;;;;5094673;28;20472;-76
2021/05/15 04:03:36;;;;;;;24.98;15.40;;;10.60;73.90;;;;;;5093079;28;20063;-76
2021/05/15 04:06:02;;;;;;;22.85;13.82;;;10.60;73.80;;;;;;5075804;28;20044;-76
2021/05/15 04:08:28;;;;;;;25.00;13.65;;;10.60;73.90;;;;;;5094500;28;20056;-76
2021/05/15 04:10:53;;;;;;;20.55;14.40;;;10.60;73.90;;;;;;5094022;28;20547;-78
2021/05/15 04:18:12;;;;;;;20.50;13.88;;;10.60;73.70;;;;;;5092991;28;20032;-76
2021/05/15 04:20:38;;;;;;;19.90;13.73;;;10.70;73.90;;;;;;5076344;28;20097;-76
2021/05/15 04:23:04;;;;;;;25.80;14.77;;;10.60;73.80;;;;;;5075793;28;20040;-75
2021/05/15 04:25:30;;;;;;;24.60;14.07;;;10.70;73.80;;;;;;5092804;28;20036;-75
2021/05/15 04:27:56;;;;;;;24.02;16.05;;;10.60;73.80;;;;;;5092419;28;20485;-75
2021/05/15 04:30:23;;;;;;;20.70;13.25;;;10.70;73.80;;;;;;5092822;28;20051;-75
2021/05/15 04:32:49;;;;;;;22.73;14.20;;;10.70;73.80;;;;;;5075747;28;20099;-79
2021/05/15 04:35:15;;;;;;;24.98;14.73;;;10.70;73.80;;;;;;5075373;28;20496;-76
2021/05/15 04:37:41;;;;;;;22.65;15.52;;;10.70;73.80;;;;;;5076059;28;20036;-77
2021/05/15 04:40:07;;;;;;;25.90;15.15;;;10.70;73.80;;;;;;5091977;28;20044;-76
2021/05/15 04:42:33;;;;;;;23.65;14.57;;;10.70;73.70;;;;;;5094355;28;20521;-75
2021/05/15 04:44:58;;;;;;;23.48;13.85;;;10.70;73.80;;;;;;5092147;28;20044;-75
2021/05/15 04:47:24;;;;;;;25.60;15.02;;;10.70;73.80;;;;;;5092487;28;20089;-75
2021/05/15 04:49:52;;;;;;;24.45;15.30;;;10.80;73.80;;;;;;5075361;28;20067;-76
2021/05/15 04:52:17;;;;;;;25.80;15.63;;;10.70;73.70;;;;;;5075595;28;20051;-75
2021/05/15 04:54:43;;;;;;;24.10;15.10;;;10.80;73.80;;;;;;5093537;28;20067;-76
2021/05/15 04:57:09;;;;;;;25.85;15.90;;;10.80;73.70;;;;;;5093365;28;20044;-77
2021/05/15 04:59:35;;;;;;;28.40;17.48;;;10.90;73.80;;;;;;5092278;28;20040;-77
2021/05/15 05:02:00;;;;;;;26.80;16.20;;;10.80;73.70;;;;;;5092359;28;20044;-76
2021/05/15 05:04:26;;;;;;;26.52;16.27;;;10.80;73.70;;;;;;5092219;28;20093;-76
2021/05/15 05:06:54;;;;;;;26.63;17.98;;;10.90;73.70;;;;;;5075043;28;20044;-75
2021/05/15 05:09:20;;;;;;;28.27;16.92;;;10.90;73.70;;;;;;5093454;28;20036;-76
2021/05/15 05:11:47;;;;;;;27.67;17.38;;;10.90;73.70;;;;;;5092031;28;20127;-75
2021/05/15 05:14:13;;;;;;;29.77;16.73;;;10.90;73.70;;;;;;5075747;28;20039;-76
2021/05/15 05:16:39;;;;;;;28.15;17.63;;;10.90;73.80;;;;;;5091968;28;20130;-76
2021/05/15 05:19:06;;;;;;;29.35;17.73;;;10.90;73.80;;;;;;5092836;28;20044;-78
2021/05/15 05:21:34;;;;;;;28.45;16.92;;;10.90;73.70;;;;;;5092920;28;20051;-76
2021/05/15 05:24:00;;;;;;;27.95;17.70;;;11.00;73.80;;;;;;5091148;28;20051;-75
2021/05/15 05:26:26;;;;;;;29.58;17.38;;;11.00;73.70;;;;;;5093038;28;20048;-76
2021/05/15 05:28:54;;;;;;;29.02;17.20;;;11.00;73.70;;;;;;5090907;28;20423;-76
2021/05/15 05:31:20;;;;;;;27.42;17.80;;;11.00;73.80;;;;;;5092734;28;20115;-74
2021/05/15 05:33:46;;;;;;;31.75;18.50;;;11.10;73.80;;;;;;5074700;28;20176;-76
2021/05/15 05:36:12;;;;;;;28.75;17.30;;;11.10;73.60;;;;;;5091875;28;20052;-76
2021/05/15 05:38:38;;;;;;;31.15;17.60;;;11.10;73.60;;;;;;5091353;28;20047;-76
2021/05/15 05:41:04;;;;;;;27.27;17.83;;;11.10;73.60;;;;;;5091846;28;20499;-75
2021/05/15 05:43:29;;;;;;;31.60;17.23;;;11.20;73.60;;;;;;5074565;28;20521;-76
2021/05/15 05:45:55;;;;;;;29.30;17.98;;;11.20;73.70;;;;;;5090515;28;20048;-76
2021/05/15 05:48:21;;;;;;;31.20;19.33;;;11.20;73.60;;;;;;5074618;28;20040;-76
2021/05/15 05:50:46;;;;;;;30.13;18.45;;;11.30;73.60;;;;;;5092777;28;20054;-75
2021/05/15 05:53:13;;;;;;;28.35;18.10;;;11.30;73.50;;;;;;5092413;28;20036;-75
2021/05/15 05:55:39;;;;;;;29.33;19.17;;;11.30;73.50;;;;;;5091410;28;20045;-75
2021/05/15 05:58:05;;;;;;;32.15;17.77;;;11.30;73.40;;;;;;5074252;28;20052;-75
2021/05/15 06:00:31;;;;;;;26.50;17.15;;;11.40;73.30;;;;;;5074492;28;20104;-76
2021/05/15 06:02:57;;;;;;;29.30;17.63;;;11.40;73.30;;;;;;5090679;28;20052;-77
2021/05/15 06:05:23;;;;;;;26.42;16.83;;;11.40;73.20;;;;;;5090803;28;20055;-76
2021/05/15 06:07:49;;;;;;;28.33;17.30;;;11.40;73.10;;;;;;5092127;28;20040;-76
2021/05/15 06:10:14;;;;;;;31.40;18.25;;;11.40;73.30;;;;;;5091416;28;20043;-75
2021/05/15 06:12:40;;;;;;;30.00;16.50;;;11.50;73.30;;;;;;5090309;28;20063;-75
2021/05/15 06:15:07;;;;;;;26.67;17.08;;;11.50;73.10;;;;;;5090370;28;20089;-76
2021/05/15 06:17:32;;;;;;;28.48;17.20;;;11.50;72.90;;;;;;5074235;28;20056;-77
2021/05/15 06:20:00;;;;;;;28.85;17.27;;;11.50;72.90;;;;;;5090216;28;20044;-76
2021/05/15 06:22:26;;;;;;;25.35;15.90;;;11.60;72.90;;;;;;5090845;28;20044;-76
2021/05/15 06:24:52;;;;;;;25.85;15.60;;;11.60;72.80;;;;;;5090559;28;20050;-76
2021/05/15 06:27:18;;;;;;;24.60;16.17;;;11.70;72.80;;;;;;5090955;28;20044;-77
2021/05/15 06:29:44;;;;;;;25.00;15.68;;;11.70;72.70;;;;;;5090850;28;20044;-78
2021/05/15 06:32:10;;;;;;;30.65;16.88;;;11.70;72.60;;;;;;5090036;28;20046;-75
2021/05/15 06:34:36;;;;;;;26.50;15.93;;;11.80;73.20;;;;;;5091441;28;20068;-77
2021/05/15 06:37:03;;;;;;;29.10;15.95;;;11.80;72.30;;;;;;5091569;28;20083;-76
2021/05/15 06:39:28;;;;;;;23.77;14.80;;;11.90;72.10;;;;;;5090547;28;20119;-76
2021/05/15 06:41:54;;;;;;;25.88;14.98;;;11.90;71.90;;;;;;5091884;28;20455;-80
2021/05/15 06:44:20;;;;;;;27.38;15.20;;;12.00;71.80;;;;;;5091380;28;20248;-75
2021/05/15 06:46:45;;;;;;;26.63;15.65;;;12.10;71.60;;;;;;5090215;28;20052;-77
2021/05/15 06:49:11;;;;;;;22.42;14.93;;;12.10;71.40;;;;;;5073018;28;20047;-78
2021/05/15 06:51:37;;;;;;;25.98;16.75;;;12.10;71.20;;;;;;5091466;28;20544;-77
2021/05/15 06:54:03;;;;;;;25.00;16.58;;;12.20;71.10;;;;;;5089701;28;20154;-78
2021/05/15 06:56:29;;;;;;;29.15;16.58;;;12.30;71.10;;;;;;5073675;28;20131;-76
2021/05/15 06:58:55;;;;;;;27.05;16.00;;;12.30;71.00;;;;;;5091677;28;20122;-76
2021/05/15 07:01:21;;;;;;;29.77;16.90;;;12.30;71.00;;;;;;5089724;28;20050;-77
2021/05/15 07:03:47;;;;;;;25.40;15.80;;;12.40;70.80;;;;;;5090459;28;20068;-75
2021/05/15 07:06:15;;;;;;;25.35;16.27;;;12.40;70.70;;;;;;5073586;28;20051;-77
2021/05/15 07:08:40;;;;;;;25.45;14.52;;;12.50;71.40;;;;;;5090415;28;20051;-75
2021/05/15 07:11:06;;;;;;;26.20;16.00;;;12.50;70.60;;;;;;5089570;28;20055;-77
2021/05/15 07:13:32;;;;;;;25.77;16.23;;;12.60;71.20;;;;;;5090239;28;20097;-77
2021/05/15 07:15:57;;;;;;;26.27;17.02;;;12.60;70.40;;;;;;5091602;28;20044;-75
2021/05/15 07:18:23;;;;;;;30.35;17.85;;;12.60;70.30;;;;;;5089633;28;20044;-75
2021/05/15 07:20:49;;;;;;;27.83;18.02;;;12.60;70.40;;;;;;5090060;28;20040;-76
2021/05/15 07:23:15;;;;;;;31.83;18.58;;;12.60;70.40;;;;;;5089738;28;20094;-77
2021/05/15 07:25:41;;;;;;;34.40;20.35;;;12.60;70.30;;;;;;5076494;28;20036;-76
2021/05/15 07:28:09;;;;;;;38.83;20.00;;;12.70;70.20;;;;;;5093940;28;20036;-87
2021/05/15 07:30:35;;;;;;;34.78;20.23;;;12.70;70.10;;;;;;5093782;28;20039;-76
2021/05/15 07:33:01;;;;;;;36.53;20.48;;;12.70;70.20;;;;;;5095018;28;20392;-76
2021/05/15 07:35:27;;;;;;;32.75;19.90;;;12.70;70.20;;;;;;5076153;28;20056;-76
2021/05/15 07:37:54;;;;;;;31.23;19.95;;;12.80;70.20;;;;;;5095032;28;20036;-77
2021/05/15 07:40:20;;;;;;;32.75;19.10;;;12.80;70.20;;;;;;5076209;28;20040;-76
2021/05/15 07:42:46;;;;;;;31.52;19.85;;;12.80;70.30;;;;;;5093593;28;20059;-77
2021/05/15 07:45:12;;;;;;;31.52;19.08;;;12.80;70.20;;;;;;5094269;28;20044;-77
2021/05/15 07:47:39;;;;;;;34.90;20.38;;;12.80;70.30;;;;;;5093654;28;20529;-77
2021/05/15 07:50:05;;;;;;;33.55;20.63;;;12.80;70.30;;;;;;5093622;28;20040;-77
2021/05/15 07:52:31;;;;;;;36.25;20.33;;;12.80;70.40;;;;;;5094195;28;20044;-75
2021/05/15 07:54:57;;;;;;;30.67;20.05;;;12.90;70.40;;;;;;5093606;28;20047;-75
2021/05/15 07:57:25;;;;;;;34.40;21.27;;;12.90;70.40;;;;;;5094054;28;20044;-79
2021/05/15 07:59:51;;;;;;;35.28;20.05;;;12.90;70.30;;;;;;5094652;28;20040;-75
2021/05/15 08:02:16;;;;;;;32.35;21.88;;;12.90;70.20;;;;;;5093114;28;20150;-76
2021/05/15 08:04:42;;;;;;;36.28;20.42;;;12.90;70.30;;;;;;5093107;28;20040;-77
2021/05/15 08:07:10;;;;;;;38.75;21.52;;;12.90;70.30;;;;;;5076861;28;20386;-77
2021/05/15 08:09:35;;;;;;;38.20;22.40;;;13.00;70.50;;;;;;5092854;28;20044;-78
2021/05/15 08:12:01;;;;;;;37.10;23.70;;;13.00;70.50;;;;;;5092888;28;20043;-76
2021/05/15 08:14:27;;;;;;;35.08;21.17;;;13.00;70.60;;;;;;5092805;28;20067;-75
2021/05/15 08:16:53;;;;;;;38.13;23.98;;;13.00;70.50;;;;;;5094313;28;20042;-77
2021/05/15 08:19:19;;;;;;;37.00;23.58;;;13.10;70.40;;;;;;5092740;28;20044;-77
2021/05/15 08:21:44;;;;;;;40.33;23.77;;;13.10;70.40;;;;;;5092585;28;20079;-75
2021/05/15 08:24:10;;;;;;;44.63;26.70;;;13.10;70.50;;;;;;5094450;28;20448;-76
2021/05/15 08:26:38;;;;;;;44.40;27.92;;;13.10;70.60;;;;;;5093599;28;20043;-76
2021/05/15 08:29:07;;;;;;;45.13;27.25;;;13.20;70.60;;;;;;5076353;28;20048;-76
2021/05/15 08:31:34;;;;;;;42.30;27.77;;;13.20;70.70;;;;;;5093498;28;20097;-75
2021/05/15 08:34:00;;;;;;;44.10;28.20;;;13.20;70.60;;;;;;5092625;28;20473;-78
2021/05/15 08:36:26;;;;;;;45.97;28.13;;;13.30;70.60;;;;;;5091099;28;20052;-75
2021/05/15 08:38:54;;;;;;;42.08;27.25;;;13.30;70.50;;;;;;5075570;28;20067;-76
2021/05/15 08:41:19;;;;;;;39.63;25.77;;;13.30;70.40;;;;;;5093153;28;20047;-77
2021/05/15 08:43:47;;;;;;;51.53;34.55;;;13.40;70.50;;;;;;5075154;28;20123;-76
2021/05/15 08:46:13;;;;;;;49.65;29.88;;;13.40;71.20;;;;;;5092173;28;20130;-78
2021/05/15 08:48:40;;;;;;;49.60;30.90;;;13.40;70.50;;;;;;5074955;28;20068;-76
2021/05/15 08:51:05;;;;;;;48.72;30.98;;;13.40;70.70;;;;;;5092018;28;20044;-77
2021/05/15 08:53:34;;;;;;;44.17;28.83;;;13.50;71.40;;;;;;5091940;28;20446;-77
2021/05/15 08:56:00;;;;;;;51.10;30.55;;;13.40;70.70;;;;;;5092238;28;20036;-76
2021/05/15 08:58:26;;;;;;;47.30;30.48;;;13.40;70.80;;;;;;5091558;28;20480;-76
2021/05/15 09:00:52;;;;;;;48.45;31.80;;;13.50;71.00;;;;;;5075277;28;20093;-76
2021/05/15 09:03:19;;;;;;;44.13;29.20;;;13.40;70.90;;;;;;5091743;28;20040;-78
2021/05/15 09:05:46;;;;;;;46.70;30.85;;;13.50;71.10;;;;;;5074352;28;20058;-77
2021/05/15 09:08:12;;;;;;;45.47;31.70;;;13.50;71.00;;;;;;5058633;28;20048;-77
2021/05/15 09:10:42;;;;;;;46.13;31.60;;;13.50;71.10;;;;;;5092571;28;20388;-77
2021/05/15 09:13:18;;;;;;;48.10;32.00;;;13.50;71.20;;;;;;5075260;28;20040;-77
2021/05/15 09:15:51;;;;;;;44.72;31.17;;;13.60;71.30;;;;;;5092712;28;20286;-78
2021/05/15 09:18:22;;;;;;;51.00;32.83;;;13.60;71.30;;;;;;5091717;28;20044;-76
2021/05/15 09:20:49;;;;;;;49.00;32.83;;;13.60;71.30;;;;;;5092644;28;20043;-77
2021/05/15 09:23:17;;;;;;;49.38;31.08;;;13.60;71.20;;;;;;5091688;28;20127;-77
2021/05/15 09:25:43;;;;;;;45.00;30.75;;;13.60;71.20;;;;;;5091065;28;20453;-76
2021/05/15 09:28:09;;;;;;;48.78;32.30;;;13.60;71.20;;;;;;5074878;28;20093;-76
2021/05/15 09:30:35;;;;;;;50.13;33.13;;;13.60;71.30;;;;;;5090907;28;20056;-77
2021/05/15 09:33:13;;;;;;;49.85;32.78;;;13.50;71.30;;;;;;5091256;28;20460;-76
2021/05/15 09:35:39;;;;;;;51.45;33.17;;;13.60;71.40;;;;;;5091653;28;20138;-77
2021/05/15 09:38:05;;;;;;;49.88;34.45;;;13.60;71.40;;;;;;5091302;28;20143;-75
2021/05/15 09:40:31;;;;;;;48.95;33.25;;;13.60;71.40;;;;;;5073720;28;20431;-77
2021/05/15 09:43:02;;;;;;;51.72;34.83;;;13.60;71.40;;;;;;5074552;28;20426;-77
2021/05/15 09:45:30;;;;;;;48.72;34.50;;;13.60;71.40;;;;;;5091598;28;20063;-77
2021/05/15 09:47:56;;;;;;;49.78;34.65;;;13.60;71.50;;;;;;5091367;28;20064;-77
2021/05/15 09:50:23;;;;;;;52.47;34.75;;;13.60;71.60;;;;;;5092436;28;20075;-77
2021/05/15 09:52:49;;;;;;;52.50;36.15;;;13.60;71.70;;;;;;5091653;28;20043;-78
2021/05/15 09:55:15;;;;;;;49.70;34.53;;;13.60;71.90;;;;;;5090832;28;20050;-77
2021/05/15 09:57:41;;;;;;;56.00;35.95;;;13.50;71.80;;;;;;5090669;28;20473;-76
2021/05/15 10:00:11;;;;;;;54.53;36.53;;;13.60;72.00;;;;;;5092135;28;20149;-77
2021/05/15 10:02:37;;;;;;;52.10;34.70;;;13.60;71.90;;;;;;5090350;28;20498;-78
2021/05/15 10:05:12;;;;;;;52.95;36.97;;;13.60;72.00;;;;;;5092152;28;20039;-77
2021/05/15 10:07:38;;;;;;;45.25;34.42;;;13.70;71.90;;;;;;5091084;28;20048;-76
2021/05/15 10:10:06;;;;;;;54.35;35.40;;;13.80;71.50;;;;;;5090530;28;20043;-77
2021/05/15 10:12:33;;;;;;;52.97;34.97;;;14.00;71.30;;;;;;5073226;28;20044;-77
2021/05/15 10:15:00;;;;;;;50.00;34.40;;;14.00;71.10;;;;;;5090952;28;20484;-77
2021/05/15 10:17:26;;;;;;;51.35;33.95;;;14.10;71.00;;;;;;5074263;28;20044;-77
2021/05/15 10:19:52;;;;;;;48.90;32.10;;;14.10;70.70;;;;;;5090299;28;20074;-75
2021/05/15 10:22:17;;;;;;;46.92;33.30;;;14.20;70.50;;;;;;5074118;28;20044;-76
2021/05/15 10:24:45;;;;;;;46.55;31.98;;;14.20;70.40;;;;;;5073382;28;20039;-76
2021/05/15 10:27:12;;;;;;;48.03;31.75;;;14.20;70.30;;;;;;5074149;28;20068;-77
2021/05/15 10:29:39;;;;;;;44.75;31.85;;;14.30;70.10;;;;;;5073461;28;20122;-78
2021/05/15 10:32:09;;;;;;;41.88;30.15;;;14.30;69.90;;;;;;5090610;28;20043;-76
2021/05/15 10:34:35;;;;;;;47.45;33.22;;;14.40;69.70;;;;;;5089908;28;20040;-78
2021/05/15 10:37:02;;;;;;;43.53;31.05;;;14.50;69.50;;;;;;5091361;28;20143;-77
2021/05/15 10:39:32;;;;;;;45.33;32.67;;;14.50;70.00;;;;;;5074758;28;20047;-78
2021/05/15 10:41:59;;;;;;;41.40;30.35;;;14.60;69.00;;;;;;5056609;28;20044;-77
2021/05/15 10:44:24;;;;;;;43.20;30.70;;;14.70;68.80;;;;;;5073472;28;20396;-76
2021/05/15 10:46:51;;;;;;;42.67;30.33;;;14.80;68.30;;;;;;5089900;28;20069;-76
2021/05/15 10:49:22;;;;;;;43.80;31.05;;;14.90;68.00;;;;;;5090522;28;20453;-76
2021/05/15 10:51:48;;;;;;;42.35;29.13;;;15.00;67.80;;;;;;5089781;28;20059;-77
2021/05/15 10:54:34;;;;;;;43.40;30.92;;;15.30;68.30;;;;;;5091223;28;20044;-77
2021/05/15 10:57:04;;;;;;;42.50;29.05;;;15.50;68.80;;;;;;5089812;28;20383;-77
2021/05/15 10:59:30;;;;;;;42.65;29.60;;;15.80;68.00;;;;;;5091345;28;20040;-76
2021/05/15 11:01:58;;;;;;;38.90;28.38;;;16.00;67.40;;;;;;5077147;28;20132;-78
2021/05/15 11:04:23;;;;;;;41.45;28.38;;;16.10;66.80;;;;;;5073604;28;20536;-77
2021/05/15 11:07:02;;;;;;;39.00;28.63;;;16.30;66.50;;;;;;5074634;28;20127;-78
2021/05/15 11:09:28;;;;;;;40.67;28.20;;;16.40;65.80;;;;;;5091054;28;20076;-76
2021/05/15 11:12:09;;;;;;;43.22;29.38;;;16.30;65.30;;;;;;5073171;28;20067;-76
2021/05/15 11:14:39;;;;;;;41.13;29.48;;;16.40;65.00;;;;;;5090854;28;20503;-77
2021/05/15 11:17:23;;;;;;;44.30;30.10;;;16.30;64.40;;;;;;5075316;28;20075;-77
2021/05/15 11:19:59;;;;;;;39.58;29.05;;;16.40;64.30;;;;;;5090457;28;20048;-76
2021/05/15 11:22:41;;;;;;;44.55;31.08;;;16.60;64.10;;;;;;5074214;28;20041;-78
2021/05/15 11:25:14;;;;;;;40.22;29.70;;;16.60;63.40;;;;;;5090003;28;20048;-78
2021/05/15 11:27:50;;;;;;;39.15;29.92;;;16.70;63.50;;;;;;5074957;28;20090;-88
2021/05/15 11:30:24;;;;;;;44.65;29.95;;;16.90;63.10;;;;;;5090738;28;20037;-79
2021/05/15 11:33:00;;;;;;;40.38;30.48;;;17.00;62.90;;;;;;5089344;28;20040;-76
2021/05/15 11:35:27;;;;;;;36.53;28.60;;;17.10;62.30;;;;;;5090630;28;20041;-77
2021/05/15 11:38:17;;;;;;;37.95;27.92;;;17.10;61.80;;;;;;5074596;28;20135;-79
2021/05/15 11:40:45;;;;;;;34.22;26.15;;;17.10;61.00;;;;;;5074060;28;20090;-82
2021/05/15 11:43:24;;;;;;;36.03;24.80;;;17.10;61.10;;;;;;5074884;28;20046;-77
2021/05/15 11:45:51;;;;;;;36.33;25.10;;;17.10;60.30;;;;;;5074101;28;20481;-78
2021/05/15 11:48:21;;;;;;;36.45;26.33;;;17.30;60.30;;;;;;5090214;28;20094;-77
2021/05/15 11:51:13;;;;;;;36.15;25.40;;;17.40;59.70;;;;;;5089718;28;20041;-77
2021/05/15 11:53:40;;;;;;;36.55;24.92;;;17.80;60.00;;;;;;5090157;28;20044;-78
2021/05/15 11:56:23;;;;;;;30.50;22.95;;;18.20;59.10;;;;;;5089014;28;20489;-76
2021/05/15 11:58:51;;;;;;;28.80;22.52;;;18.40;58.00;;;;;;5074040;28;20522;-78
2021/05/15 12:01:26;;;;;;;30.25;21.83;;;18.50;57.70;;;;;;5090097;28;20037;-79
2021/05/15 12:03:52;;;;;;;28.23;21.40;;;18.60;57.10;;;;;;5094619;28;20036;-77
2021/05/15 12:06:18;;;;;;;27.00;20.80;;;18.80;56.60;;;;;;5093680;28;20404;-78
2021/05/15 12:08:44;;;;;;;25.85;19.90;;;18.80;55.50;;;;;;5076404;28;20048;-76
2021/05/15 12:11:11;;;;;;;24.70;19.08;;;19.00;54.90;;;;;;5092799;28;20044;-77
2021/05/15 12:13:47;;;;;;;24.77;19.65;;;19.10;54.70;;;;;;5093838;28;20131;-79
2021/05/15 12:16:12;;;;;;;22.27;17.25;;;19.20;54.10;;;;;;5094776;28;20043;-78
2021/05/15 12:18:38;;;;;;;26.75;19.35;;;19.20;53.50;;;;;;5094435;28;20035;-78
2021/05/15 12:21:04;;;;;;;24.67;19.65;;;19.10;53.10;;;;;;5075990;28;20124;-77
2021/05/15 12:23:30;;;;;;;24.02;18.98;;;19.20;53.00;;;;;;5076410;28;20047;-78
2021/05/15 12:26:03;;;;;;;23.58;17.75;;;19.40;52.90;;;;;;5093549;28;20044;-77
2021/05/15 12:28:36;;;;;;;25.17;19.25;;;19.40;51.90;;;;;;5076434;28;20058;-78
2021/05/15 12:31:02;;;;;;;26.17;19.65;;;19.40;52.30;;;;;;5093709;28;20068;-76
2021/05/15 12:33:29;;;;;;;24.30;18.48;;;19.60;52.10;;;;;;5076016;28;20490;-77